Time;durP1;ratioP1;P1;durP2;ratioP2;P2;SDS_P1;SDS_P2;PMS_P1;PMS_P2;Temp;Humidity;BMP_temperature;BMP_pressure;BME280_temperature;BME280_humidity;BME280_pressure;Samples;Min_cycle;Max_cycle;Signal;HPM_P1;HPM_P2
2021/10/18 00:02:07;;;;;;;21.73;13.57;;;;;;;12.58;73.86;100335.69;5071700;28;20020;-39
2021/10/18 00:04:33;;;;;;;23.05;14.25;;;;;;;12.62;73.28;100326.25;5071851;28;20078;-38
2021/10/18 00:06:58;;;;;;;22.13;13.13;;;;;;;12.89;73.30;100327.94;5071512;28;20024;-38
2021/10/18 00:09:24;;;;;;;21.58;13.65;;;;;;;12.97;72.81;100334.94;5071548;28;20023;-38
2021/10/18 00:11:49;;;;;;;22.80;13.35;;;;;;;12.83;73.58;100328.75;5071549;28;20016;-48
2021/10/18 00:14:15;;;;;;;19.88;13.60;;;;;;;12.70;74.02;100323.41;5071335;28;20021;-48
2021/10/18 00:16:40;;;;;;;21.33;13.30;;;;;;;12.68;74.37;100334.28;5071133;28;20074;-48
2021/10/18 00:19:06;;;;;;;21.27;13.50;;;;;;;12.69;74.21;100330.56;5071305;28;20020;-47
2021/10/18 00:21:32;;;;;;;20.02;13.48;;;;;;;12.37;75.45;100310.78;5071160;28;20036;-47
2021/10/18 00:23:57;;;;;;;19.20;14.05;;;;;;;12.71;73.89;100333.84;5071490;28;20021;-48
2021/10/18 00:26:23;;;;;;;19.63;13.55;;;;;;;12.50;74.91;100326.03;5071561;28;20028;-50
2021/10/18 00:28:48;;;;;;;22.85;13.90;;;;;;;12.58;75.68;100330.34;5071237;28;20460;-51
2021/10/18 00:31:14;;;;;;;19.92;13.27;;;;;;;12.76;73.24;100325.25;5071582;28;20044;-48
2021/10/18 00:33:39;;;;;;;19.40;13.18;;;;;;;12.81;72.83;100321.97;5071052;28;20028;-50
2021/10/18 00:36:04;;;;;;;19.50;13.38;;;;;;;13.41;70.83;100325.47;5071291;28;20028;-51
2021/10/18 00:38:30;;;;;;;18.77;13.13;;;;;;;13.28;70.89;100331.63;5071453;28;20340;-50
2021/10/18 00:40:55;;;;;;;20.38;13.57;;;;;;;13.01;72.20;100324.66;5071166;28;20025;-50
2021/10/18 00:43:21;;;;;;;21.02;14.32;;;;;;;13.11;71.92;100325.06;5071374;28;20333;-48
2021/10/18 00:45:46;;;;;;;19.02;13.52;;;;;;;12.90;72.95;100324.22;5056883;28;20024;-48
2021/10/18 00:48:12;;;;;;;21.48;13.95;;;;;;;12.67;74.00;100327.28;5064198;28;20135;-51
2021/10/18 00:50:37;;;;;;;20.13;13.70;;;;;;;12.56;74.63;100330.53;5071110;28;20329;-49
2021/10/18 00:53:03;;;;;;;21.42;14.43;;;;;;;12.75;73.78;100328.13;5069564;28;20102;-49
2021/10/18 00:55:28;;;;;;;21.35;14.10;;;;;;;12.60;74.40;100329.09;5069454;28;20048;-49
2021/10/18 00:57:54;;;;;;;22.13;14.30;;;;;;;12.83;73.58;100336.78;5069098;28;20029;-51
2021/10/18 01:00:19;;;;;;;19.38;13.52;;;;;;;12.85;73.57;100324.03;5068603;28;20484;-49
2021/10/18 01:02:45;;;;;;;22.23;14.45;;;;;;;12.59;74.87;100321.31;5070917;28;20431;-50
2021/10/18 01:05:10;;;;;;;22.52;14.82;;;;;;;12.47;74.30;100329.94;5070363;28;20017;-51
2021/10/18 01:07:36;;;;;;;22.52;14.13;;;;;;;12.52;74.34;100332.78;5070756;28;20061;-50
2021/10/18 01:10:01;;;;;;;21.40;14.18;;;;;;;12.58;74.43;100325.00;5070816;28;20021;-48
2021/10/18 01:12:27;;;;;;;21.27;14.52;;;;;;;12.56;74.22;100327.06;5070681;28;20475;-49
2021/10/18 01:14:52;;;;;;;21.85;14.70;;;;;;;12.80;73.70;100331.81;5070401;28;20036;-49
2021/10/18 01:17:18;;;;;;;21.58;14.90;;;;;;;12.58;74.63;100325.81;5070631;28;20025;-50
2021/10/18 01:19:43;;;;;;;22.50;13.95;;;;;;;12.63;74.02;100323.38;5070597;28;20349;-50
2021/10/18 01:22:09;;;;;;;22.13;14.63;;;;;;;12.46;75.20;100322.13;5070091;28;20155;-49
2021/10/18 01:24:35;;;;;;;19.75;14.43;;;;;;;12.39;75.37;100323.94;5058440;28;20029;-51
2021/10/18 01:27:00;;;;;;;26.13;14.77;;;;;;;12.56;74.61;100327.06;5050379;28;20112;-49
2021/10/18 01:29:30;;;;;;;23.85;14.45;;;;;;;12.70;74.20;100318.06;5050612;28;20055;-52
2021/10/18 01:31:55;;;;;;;21.30;14.30;;;;;;;12.60;75.43;100328.28;5048895;28;20056;-51
2021/10/18 01:34:21;;;;;;;22.10;14.57;;;;;;;12.75;74.56;100326.25;5050329;28;20041;-52
2021/10/18 01:36:46;;;;;;;22.05;15.48;;;;;;;12.46;75.25;100324.78;5050432;28;20029;-49
2021/10/18 01:39:12;;;;;;;22.88;15.35;;;;;;;12.33;77.16;100329.03;5050480;28;20162;-51
2021/10/18 01:41:37;;;;;;;23.35;14.75;;;;;;;12.30;76.25;100324.13;5050059;28;20461;-52
2021/10/18 01:44:03;;;;;;;23.85;15.60;;;;;;;12.50;75.42;100313.47;5050038;28;20024;-52
2021/10/18 01:46:28;;;;;;;21.92;15.18;;;;;;;12.65;74.81;100321.31;5049984;28;20177;-51
2021/10/18 01:48:54;;;;;;;21.90;15.00;;;;;;;12.89;73.37;100319.94;5068674;28;20021;-52
2021/10/18 01:51:19;;;;;;;23.83;15.15;;;;;;;12.64;73.77;100321.53;5069664;28;20396;-50
2021/10/18 01:53:44;;;;;;;23.13;14.77;;;;;;;12.36;75.57;100319.03;5069987;28;20028;-51
2021/10/18 01:56:10;;;;;;;21.83;14.70;;;;;;;12.21;76.62;100319.97;5067875;28;20364;-51
2021/10/18 01:58:35;;;;;;;24.17;15.38;;;;;;;12.23;76.38;100317.13;5049398;28;20083;-50
2021/10/18 02:01:02;;;;;;;22.63;14.93;;;;;;;12.47;75.61;100321.91;5049435;28;20025;-50
2021/10/18 02:03:27;;;;;;;23.17;15.20;;;;;;;12.42;75.98;100320.88;5049415;28;20021;-50
2021/10/18 02:05:53;;;;;;;22.33;15.00;;;;;;;12.43;75.37;100325.16;5049162;28;20041;-50
2021/10/18 02:08:18;;;;;;;23.67;14.55;;;;;;;12.57;73.93;100328.72;5049436;28;20100;-50
2021/10/18 02:10:44;;;;;;;21.42;14.85;;;;;;;12.26;76.15;100325.56;5048771;28;20028;-49
2021/10/18 02:13:09;;;;;;;22.77;14.80;;;;;;;12.42;76.38;100321.69;5049234;28;20024;-49
2021/10/18 02:15:36;;;;;;;21.17;14.38;;;;;;;12.49;76.15;100327.88;5049089;28;20032;-48
2021/10/18 02:18:01;;;;;;;24.33;15.65;;;;;;;12.73;74.66;100324.84;5048946;28;20017;-48
2021/10/18 02:20:27;;;;;;;23.60;14.48;;;;;;;12.76;74.24;100327.94;5048892;28;20687;-50
2021/10/18 02:22:52;;;;;;;22.42;15.23;;;;;;;12.64;74.88;100326.84;5048991;28;20013;-49
2021/10/18 02:25:18;;;;;;;22.77;14.65;;;;;;;12.75;74.42;100328.13;5048706;28;20032;-52
2021/10/18 02:27:43;;;;;;;21.70;15.40;;;;;;;12.77;74.95;100328.75;5048617;28;20024;-50
2021/10/18 02:30:10;;;;;;;23.55;15.50;;;;;;;13.11;72.90;100327.72;5048463;28;20059;-50
2021/10/18 02:32:36;;;;;;;23.73;15.25;;;;;;;12.77;73.75;100326.06;5048672;28;20125;-49
2021/10/18 02:35:01;;;;;;;24.65;15.40;;;;;;;12.57;74.39;100323.38;5049193;28;20033;-52
2021/10/18 02:37:27;;;;;;;22.27;14.73;;;;;;;12.48;75.05;100325.41;5048939;28;20535;-51
2021/10/18 02:39:52;;;;;;;25.17;15.18;;;;;;;12.46;74.86;100328.25;5049047;28;20052;-49
2021/10/18 02:42:17;;;;;;;23.65;14.93;;;;;;;12.49;74.97;100327.88;5049288;28;20029;-48
2021/10/18 02:44:43;;;;;;;25.80;15.30;;;;;;;12.64;74.24;100325.03;5048813;28;20051;-51
2021/10/18 02:47:09;;;;;;;22.80;15.07;;;;;;;12.58;74.67;100327.69;5053140;28;20035;-48
2021/10/18 02:49:35;;;;;;;23.85;14.60;;;;;;;12.41;75.37;100328.03;5069075;28;20480;-47
2021/10/18 02:52:00;;;;;;;28.15;15.27;;;;;;;12.37;75.36;100331.31;5068744;28;20024;-50
2021/10/18 02:54:26;;;;;;;24.67;15.20;;;;;;;12.74;73.70;100329.97;5068895;28;20031;-50
2021/10/18 02:56:51;;;;;;;25.88;15.60;;;;;;;12.44;74.18;100335.66;5068857;28;20063;-48
2021/10/18 02:59:17;;;;;;;22.52;15.63;;;;;;;12.21;75.05;100328.00;5068587;28;20036;-49
2021/10/18 03:01:42;;;;;;;26.52;16.23;;;;;;;12.29;75.08;100338.47;5069029;28;20456;-48
2021/10/18 03:04:08;;;;;;;23.27;15.98;;;;;;;12.21;74.69;100332.50;5068842;28;20115;-49
2021/10/18 03:06:33;;;;;;;24.48;16.15;;;;;;;12.43;74.16;100338.53;5068751;28;20031;-48
2021/10/18 03:08:59;;;;;;;22.80;15.40;;;;;;;12.25;75.36;100342.56;5068827;28;20464;-48
2021/10/18 03:11:25;;;;;;;26.27;17.80;;;;;;;12.26;75.27;100335.38;5068611;28;20545;-48
2021/10/18 03:13:51;;;;;;;46.08;27.60;;;;;;;12.40;74.62;100339.75;5068879;28;20162;-49
2021/10/18 03:16:16;;;;;;;24.83;16.08;;;;;;;12.26;75.09;100333.56;5068625;28;20410;-48
2021/10/18 03:18:42;;;;;;;24.02;16.38;;;;;;;12.24;74.64;100334.75;5068590;28;20028;-49
2021/10/18 03:21:07;;;;;;;26.20;16.48;;;;;;;12.28;74.50;100339.50;5069007;28;20085;-50
2021/10/18 03:23:32;;;;;;;25.63;15.32;;;;;;;12.07;75.65;100337.78;5071156;28;20038;-49
2021/10/18 03:25:58;;;;;;;28.98;16.35;;;;;;;12.08;75.38;100336.75;5072799;28;20031;-48
2021/10/18 03:28:23;;;;;;;29.55;15.70;;;;;;;12.29;74.39;100337.66;5072746;28;20020;-50
2021/10/18 03:30:49;;;;;;;24.98;15.57;;;;;;;12.45;73.97;100336.47;5072795;28;20024;-49
2021/10/18 03:33:14;;;;;;;29.00;15.70;;;;;;;12.57;73.20;100339.41;5072525;28;20036;-49
2021/10/18 03:35:40;;;;;;;27.05;16.13;;;;;;;12.37;73.74;100337.47;5071129;28;20054;-48
2021/10/18 03:38:05;;;;;;;29.08;16.23;;;;;;;12.37;73.95;100334.00;5052218;28;20043;-48
2021/10/18 03:40:30;;;;;;;24.98;15.25;;;;;;;12.35;74.39;100336.84;5052737;28;20021;-50
2021/10/18 03:42:56;;;;;;;25.10;15.50;;;;;;;12.44;74.38;100337.50;5052268;28;20110;-49
2021/10/18 03:45:21;;;;;;;23.92;16.25;;;;;;;12.29;74.22;100338.47;5052197;28;20021;-48
2021/10/18 03:47:47;;;;;;;25.10;15.50;;;;;;;12.35;73.98;100333.38;5052218;28;20079;-48
2021/10/18 03:50:15;;;;;;;24.52;16.17;;;;;;;12.15;74.65;100343.97;5052136;28;20022;-48
2021/10/18 03:52:40;;;;;;;25.50;15.68;;;;;;;12.27;74.93;100343.19;5052097;28;20054;-51
2021/10/18 03:55:06;;;;;;;29.80;17.25;;;;;;;12.30;75.13;100339.31;5052213;28;20388;-48
2021/10/18 03:57:31;;;;;;;29.45;16.30;;;;;;;12.37;75.27;100342.81;5051935;28;20036;-50
2021/10/18 03:59:57;;;;;;;28.30;16.70;;;;;;;12.58;73.79;100349.03;5052072;28;20027;-49
2021/10/18 04:02:22;;;;;;;25.52;16.00;;;;;;;12.14;75.04;100351.16;5051649;28;20386;-48
2021/10/18 04:04:48;;;;;;;27.70;16.75;;;;;;;12.13;75.79;100355.66;5051040;28;20025;-48
2021/10/18 04:07:13;;;;;;;29.25;16.15;;;;;;;11.88;75.94;100325.97;5050505;28;20029;-49
2021/10/18 04:09:39;;;;;;;24.95;16.98;;;;;;;12.21;76.51;100357.34;5050857;28;20020;-47
2021/10/18 04:12:05;;;;;;;29.10;16.38;;;;;;;12.00;76.41;100352.94;5051097;28;20385;-49
2021/10/18 04:14:30;;;;;;;31.45;17.63;;;;;;;12.21;76.10;100354.66;5049141;28;20074;-49
2021/10/18 04:16:56;;;;;;;31.83;16.73;;;;;;;12.50;76.86;100356.19;5049240;28;20096;-49
2021/10/18 04:19:21;;;;;;;25.88;16.65;;;;;;;12.30;76.86;100352.66;5050424;28;20451;-51
2021/10/18 04:21:47;;;;;;;25.08;16.08;;;;;;;12.27;76.59;100358.38;5050793;28;20445;-52
2021/10/18 04:24:12;;;;;;;28.27;17.95;;;;;;;12.39;76.06;100356.78;5050397;28;20385;-50
2021/10/18 04:26:38;;;;;;;24.58;16.02;;;;;;;12.37;76.05;100355.34;5050556;28;20013;-49
2021/10/18 04:29:07;;;;;;;24.85;15.70;;;;;;;12.37;77.44;100356.16;5049755;28;20020;-49
2021/10/18 04:31:33;;;;;;;26.00;15.97;;;;;;;12.57;75.59;100355.41;5050197;28;20084;-48
2021/10/18 04:34:00;;;;;;;28.77;16.92;;;;;;;12.30;76.87;100358.81;5049347;28;20263;-51
2021/10/18 04:36:25;;;;;;;28.95;17.55;;;;;;;12.13;77.42;100354.84;5050236;28;20079;-49
2021/10/18 04:38:51;;;;;;;25.02;16.77;;;;;;;12.38;75.78;100352.47;5049758;28;20406;-51
2021/10/18 04:41:16;;;;;;;26.80;15.80;;;;;;;12.05;76.74;100357.66;5049957;28;20029;-52
2021/10/18 04:43:42;;;;;;;26.35;16.40;;;;;;;12.10;77.48;100360.56;5049359;28;20036;-50
2021/10/18 04:46:07;;;;;;;29.75;16.35;;;;;;;12.96;73.36;100359.97;5048860;28;20036;-51
2021/10/18 04:48:33;;;;;;;27.17;15.00;;;;;;;12.49;74.44;100351.91;5048717;28;20017;-48
2021/10/18 04:50:58;;;;;;;26.55;15.40;;;;;;;12.22;75.47;100358.16;5049179;28;20021;-50
2021/10/18 04:53:23;;;;;;;27.05;16.10;;;;;;;11.99;76.35;100363.81;5048829;28;20493;-50
2021/10/18 04:55:49;;;;;;;24.17;15.73;;;;;;;11.97;77.61;100363.19;5048019;28;20020;-50
2021/10/18 04:58:14;;;;;;;25.00;15.00;;;;;;;12.17;76.45;100361.44;5048364;28;20036;-51
2021/10/18 05:00:43;;;;;;;25.33;16.02;;;;;;;12.10;76.69;100365.91;5048354;28;20082;-49
2021/10/18 05:03:08;;;;;;;26.85;15.40;;;;;;;12.27;76.01;100369.06;5049322;28;20021;-48
2021/10/18 05:05:35;;;;;;;28.35;16.13;;;;;;;12.39;74.85;100364.78;5049373;28;20077;-48
2021/10/18 05:08:03;;;;;;;26.02;15.63;;;;;;;12.22;76.18;100375.00;5049719;28;20021;-50
2021/10/18 05:10:29;;;;;;;25.08;15.93;;;;;;;12.20;75.35;100379.69;5050034;28;20048;-50
2021/10/18 05:12:54;;;;;;;29.02;16.05;;;;;;;12.33;75.49;100374.41;5049985;28;20135;-48
2021/10/18 05:15:20;;;;;;;40.72;23.52;;;;;;;12.34;75.22;100377.94;5049545;28;20060;-48
2021/10/18 05:17:45;;;;;;;30.50;17.70;;;;;;;12.27;75.87;100382.41;5049771;28;20036;-51
2021/10/18 05:20:11;;;;;;;49.72;29.05;;;;;;;12.51;74.91;100379.22;5049885;28;20079;-49
2021/10/18 05:22:36;;;;;;;35.13;17.60;;;;;;;12.49;75.15;100380.44;5049958;28;20085;-49
2021/10/18 05:25:02;;;;;;;28.27;16.75;;;;;;;12.73;74.02;100392.41;5049685;28;20024;-50
2021/10/18 05:27:27;;;;;;;31.30;18.30;;;;;;;12.72;74.23;100390.78;5049510;28;20037;-49
2021/10/18 05:29:53;;;;;;;38.80;17.00;;;;;;;12.66;74.05;100396.91;5049483;28;20446;-49
2021/10/18 05:32:18;;;;;;;35.40;19.63;;;;;;;12.75;73.98;100394.88;5049261;28;20417;-49
2021/10/18 05:34:44;;;;;;;74.90;45.72;;;;;;;12.57;75.24;100403.47;5049445;28;20021;-48
2021/10/18 05:37:09;;;;;;;27.52;16.92;;;;;;;12.59;74.36;100406.75;5049318;28;20029;-48
2021/10/18 05:39:35;;;;;;;29.98;15.90;;;;;;;12.59;75.36;100402.25;5049394;28;20025;-50
2021/10/18 05:42:00;;;;;;;27.30;16.10;;;;;;;12.59;75.03;100414.78;5049502;28;20033;-47
2021/10/18 05:44:25;;;;;;;29.58;15.07;;;;;;;12.59;75.71;100412.09;5049431;28;20025;-48
2021/10/18 05:46:51;;;;;;;30.10;15.93;;;;;;;12.76;74.77;100417.91;5050351;28;20393;-49
2021/10/18 05:49:16;;;;;;;26.92;15.30;;;;;;;12.84;74.22;100426.53;5069092;28;20047;-47
2021/10/18 05:51:42;;;;;;;40.28;21.67;;;;;;;12.85;73.81;100416.69;5069115;28;20098;-50
2021/10/18 05:54:08;;;;;;;34.70;16.92;;;;;;;13.09;71.85;100428.66;5069028;28;20040;-49
2021/10/18 05:56:33;;;;;;;30.30;16.52;;;;;;;12.98;71.08;100423.91;5069296;28;20094;-48
2021/10/18 05:58:59;;;;;;;31.60;16.73;;;;;;;12.69;71.50;100431.22;5069269;28;20032;-51
2021/10/18 06:01:25;;;;;;;27.73;16.58;;;;;;;12.70;72.10;100436.38;5068955;28;20108;-47
2021/10/18 06:03:50;;;;;;;29.65;16.70;;;;;;;12.75;72.52;100440.28;5068886;28;20032;-48
2021/10/18 06:06:16;;;;;;;25.73;15.00;;;;;;;12.78;72.61;100439.91;5068843;28;20631;-47
2021/10/18 06:08:42;;;;;;;27.35;16.80;;;;;;;12.82;71.63;100439.28;5069162;28;20016;-49
2021/10/18 06:11:07;;;;;;;29.42;17.50;;;;;;;12.78;72.41;100438.03;5068647;28;20238;-50
2021/10/18 06:13:33;;;;;;;27.27;15.95;;;;;;;12.65;71.42;100446.00;5068254;28;20082;-50
2021/10/18 06:15:58;;;;;;;25.60;15.90;;;;;;;12.76;72.40;100449.97;5068516;28;20492;-48
2021/10/18 06:18:24;;;;;;;29.45;15.68;;;;;;;12.70;72.56;100454.25;5067848;28;20021;-48
2021/10/18 06:20:51;;;;;;;25.77;17.13;;;;;;;12.69;71.63;100453.41;5068457;28;20020;-47
2021/10/18 06:23:17;;;;;;;31.88;16.33;;;;;;;12.77;71.53;100457.75;5068837;28;20024;-48
2021/10/18 06:25:43;;;;;;;30.90;15.73;;;;;;;12.87;71.12;100436.84;5068157;28;20395;-48
2021/10/18 06:28:09;;;;;;;27.02;16.20;;;;;;;12.68;71.38;100448.28;5068152;28;20099;-49
2021/10/18 06:30:35;;;;;;;28.15;17.08;;;;;;;13.08;70.37;100456.41;5067051;28;20103;-52
2021/10/18 06:33:00;;;;;;;28.58;17.40;;;;;;;13.01;70.43;100455.56;5067813;28;20041;-49
2021/10/18 06:35:26;;;;;;;27.38;17.00;;;;;;;12.86;71.46;100466.41;5067833;28;20129;-47
2021/10/18 06:37:51;;;;;;;28.52;16.30;;;;;;;12.79;71.89;100474.38;5068296;28;20020;-47
2021/10/18 06:40:17;;;;;;;33.83;17.63;;;;;;;13.06;70.61;100459.28;5068019;28;20085;-48
2021/10/18 06:42:42;;;;;;;33.00;18.92;;;;;;;12.82;70.93;100474.00;5066756;28;20111;-49
2021/10/18 06:45:08;;;;;;;33.63;20.38;;;;;;;12.87;71.69;100465.38;5058975;28;20021;-47
2021/10/18 06:47:34;;;;;;;38.95;23.60;;;;;;;13.09;70.44;100464.19;5055556;28;20141;-47
2021/10/18 06:49:59;;;;;;;39.10;25.25;;;;;;;12.73;72.33;100471.72;5067794;28;20472;-48
2021/10/18 06:52:29;;;;;;;41.20;24.10;;;;;;;13.02;72.06;100478.56;5067677;28;20025;-50
2021/10/18 06:54:55;;;;;;;;;;;;;;;13.18;71.52;100466.72;5048526;28;20514;-50
2021/10/18 06:57:20;;;;;;;45.20;22.17;;;;;;;14.49;70.07;100474.03;5046658;28;20007;-50
2021/10/18 06:59:46;;;;;;;39.22;23.27;;;;;;;14.12;68.18;100480.94;5056460;28;20108;-48
2021/10/18 07:02:11;;;;;;;38.42;21.02;;;;;;;14.22;68.64;100471.44;5057133;28;20039;-47
2021/10/18 07:04:38;;;;;;;36.65;21.20;;;;;;;14.29;69.25;100476.75;5055587;28;20028;-46
2021/10/18 07:07:04;;;;;;;35.78;21.10;;;;;;;14.44;67.35;100474.66;5055902;28;20016;-47
2021/10/18 07:09:29;;;;;;;38.75;21.85;;;;;;;14.52;66.10;100470.09;5050613;28;20186;-49
2021/10/18 07:11:55;;;;;;;41.38;21.83;;;;;;;14.73;65.78;100472.53;5048143;28;20025;-47
2021/10/18 07:14:21;;;;;;;34.92;21.30;;;;;;;14.61;65.68;100484.94;5047793;28;20406;-47
2021/10/18 07:16:46;;;;;;;34.38;20.92;;;;;;;14.74;65.81;100476.03;5047303;28;20226;-47
2021/10/18 07:19:12;;;;;;;37.78;22.75;;;;;;;14.13;68.63;100482.59;5047269;28;20025;-48
2021/10/18 07:21:37;;;;;;;42.50;22.88;;;;;;;14.21;67.53;100485.03;5046748;28;20036;-47
2021/10/18 07:24:05;;;;;;;40.67;23.50;;;;;;;14.53;66.13;100483.28;5046073;28;20552;-46
2021/10/18 07:26:31;;;;;;;37.10;22.58;;;;;;;14.79;65.90;100474.38;5047218;28;20017;-48
2021/10/18 07:28:56;;;;;;;35.88;22.13;;;;;;;14.78;66.07;100485.28;5046342;28;20461;-47
2021/10/18 07:31:22;;;;;;;33.53;20.13;;;;;;;14.72;65.06;100483.47;5046798;28;20049;-50
2021/10/18 07:33:47;;;;;;;35.45;20.13;;;;;;;14.81;65.84;100479.50;5047620;28;20034;-47
2021/10/18 07:36:22;;;;;;;36.17;22.83;;;;;;;14.70;65.61;100486.34;5048113;28;20067;-48
2021/10/18 07:38:49;;;;;;;32.35;21.02;;;;;;;14.47;67.31;100490.31;5047515;28;20025;-47
2021/10/18 07:41:15;;;;;;;39.97;21.30;;;;;;;14.43;66.51;100483.75;5048182;28;20080;-50
2021/10/18 07:43:40;;;;;;;34.97;21.48;;;;;;;14.44;67.63;100484.56;5047566;28;20052;-47
2021/10/18 07:46:06;;;;;;;32.20;19.70;;;;;;;14.31;66.91;100485.41;5048398;28;20032;-50
2021/10/18 07:48:31;;;;;;;32.38;19.77;;;;;;;14.52;66.30;100486.19;5048862;28;20033;-48
2021/10/18 07:50:57;;;;;;;35.13;19.77;;;;;;;14.45;67.01;100492.38;5048239;28;20025;-47
2021/10/18 07:53:22;;;;;;;29.77;19.15;;;;;;;14.31;67.47;100488.09;5047743;28;20021;-47
2021/10/18 07:55:48;;;;;;;31.85;19.65;;;;;;;14.25;67.75;100497.78;5047527;28;20040;-47
2021/10/18 07:58:13;;;;;;;31.05;19.67;;;;;;;14.30;67.43;100499.84;5048385;28;20045;-47
2021/10/18 08:00:39;;;;;;;31.55;19.08;;;;;;;14.28;67.79;100493.88;5048326;28;20319;-48
2021/10/18 08:03:04;;;;;;;28.88;18.15;;;;;;;14.08;69.99;100494.72;5048404;28;20021;-47
2021/10/18 08:05:30;;;;;;;30.40;18.13;;;;;;;14.23;68.00;100502.53;5047965;28;20405;-46
2021/10/18 08:07:55;;;;;;;30.92;18.88;;;;;;;14.34;67.80;100498.38;5048424;28;20025;-48
2021/10/18 08:10:24;;;;;;;30.55;18.15;;;;;;;14.51;66.10;100497.91;5051824;28;20410;-48
2021/10/18 08:12:53;;;;;;;30.15;18.55;;;;;;;14.60;66.07;100497.53;5050228;28;20040;-47
2021/10/18 08:15:19;;;;;;;32.45;19.83;;;;;;;14.54;66.20;100494.81;5051311;28;20047;-48
2021/10/18 08:17:44;;;;;;;30.60;19.67;;;;;;;14.65;65.85;100502.22;5051400;28;20115;-47
2021/10/18 08:20:10;;;;;;;31.13;18.65;;;;;;;14.79;65.98;100493.13;5051491;28;20021;-48
2021/10/18 08:22:35;;;;;;;29.92;18.67;;;;;;;14.80;66.16;100499.28;5050142;28;20112;-47
2021/10/18 08:25:00;;;;;;;33.15;20.95;;;;;;;14.49;66.48;100498.16;5051489;28;20024;-47
2021/10/18 08:27:26;;;;;;;32.55;19.48;;;;;;;14.59;66.04;100492.38;5051699;28;20025;-47
2021/10/18 08:29:51;;;;;;;35.40;20.77;;;;;;;14.69;66.24;100492.72;5051538;28;20021;-48
2021/10/18 08:32:17;;;;;;;33.10;19.15;;;;;;;14.88;65.83;100499.03;5051295;28;20068;-48
2021/10/18 08:34:42;;;;;;;35.83;19.73;;;;;;;15.13;64.18;100498.31;5051043;28;20032;-49
2021/10/18 08:37:08;;;;;;;31.88;19.15;;;;;;;14.87;65.68;100505.44;5051303;28;20102;-47
2021/10/18 08:42:25;;;;;;;29.42;19.23;;;;;;;15.08;64.94;100496.28;5050975;28;20069;-48
2021/10/18 08:44:50;;;;;;;34.67;20.23;;;;;;;15.29;63.94;100499.63;5050927;28;20025;-49
2021/10/18 08:47:16;;;;;;;34.75;19.25;;;;;;;15.08;64.89;100498.97;5050850;28;20021;-47
2021/10/18 08:49:41;;;;;;;32.60;20.02;;;;;;;15.17;64.83;100488.78;5051151;28;20043;-49
2021/10/18 08:52:07;;;;;;;35.53;19.98;;;;;;;15.11;64.41;100495.84;5049277;28;20029;-50
2021/10/18 08:54:33;;;;;;;31.25;19.13;;;;;;;15.90;62.66;100490.97;5050191;28;20063;-49
2021/10/18 08:56:58;;;;;;;31.38;19.70;;;;;;;16.13;61.54;100494.88;5050809;28;20489;-46
2021/10/18 08:59:24;;;;;;;31.80;19.02;;;;;;;15.78;63.15;100495.38;5048788;28;20032;-47
2021/10/18 09:01:51;;;;;;;34.63;19.63;;;;;;;15.89;61.84;100489.31;5050400;28;20063;-48
2021/10/18 09:04:16;;;;;;;33.78;19.73;;;;;;;15.51;62.93;100494.75;5050439;28;20029;-47
2021/10/18 09:06:48;;;;;;;34.05;20.27;;;;;;;15.38;63.55;100492.97;5050097;28;20029;-47
2021/10/18 09:09:14;;;;;;;28.40;18.40;;;;;;;15.52;63.75;100488.38;5051138;28;20459;-47
2021/10/18 09:11:39;;;;;;;30.83;19.42;;;;;;;15.63;63.12;100482.28;5050399;28;20029;-48
2021/10/18 09:14:05;;;;;;;32.25;20.15;;;;;;;15.70;64.25;100484.91;5049406;28;20410;-46
2021/10/18 09:16:32;;;;;;;33.30;19.45;;;;;;;15.97;62.46;100486.38;5050144;28;20025;-47
2021/10/18 09:19:17;;;;;;;36.30;19.15;;;;;;;16.18;61.57;100486.97;5050945;28;20504;-47
2021/10/18 09:21:50;;;;;;;30.35;18.75;;;;;;;16.29;61.79;100486.22;5049245;28;20090;-47
2021/10/18 09:24:39;;;;;;;35.00;20.63;;;;;;;16.14;62.05;100488.47;5048774;28;20374;-50
2021/10/18 09:27:10;;;;;;;34.67;19.73;;;;;;;16.12;62.17;100479.81;5048719;28;20508;-48
2021/10/18 09:29:45;;;;;;;31.63;19.70;;;;;;;16.19;63.12;100476.00;5049108;28;20031;-50
2021/10/18 09:32:27;;;;;;;31.13;19.85;;;;;;;15.99;63.52;100478.06;5048551;28;20550;-50
2021/10/18 09:35:06;;;;;;;32.83;18.92;;;;;;;16.36;61.54;100468.19;5048590;28;20037;-49
2021/10/18 09:37:39;;;;;;;29.77;18.33;;;;;;;16.16;62.82;100459.53;5049066;28;20373;-51
2021/10/18 09:40:04;;;;;;;30.40;19.00;;;;;;;16.23;63.08;100474.53;5050122;28;20056;-50
2021/10/18 09:42:30;;;;;;;34.53;21.58;;;;;;;16.39;62.94;100469.59;5049995;28;20029;-49
2021/10/18 10:52:40;;;;;;;17.85;11.25;;;;;;;17.71;55.57;100395.34;5049429;28;20039;-47
2021/10/18 10:55:22;;;;;;;17.92;11.25;;;;;;;17.74;55.90;100401.06;5049117;28;20124;-46
2021/10/18 10:57:49;;;;;;;14.65;10.18;;;;;;;18.01;54.76;100395.22;5048597;28;20120;-47
2021/10/18 11:00:34;;;;;;;15.88;10.60;;;;;;;17.85;55.37;100385.16;5049187;28;20116;-46
2021/10/18 11:03:23;;;;;;;16.02;10.52;;;;;;;17.75;56.01;100391.94;5049037;28;20033;-48
2021/10/18 11:05:55;;;;;;;20.45;11.57;;;;;;;17.66;55.43;100384.44;5048717;28;20037;-47
2021/10/18 11:08:46;;;;;;;17.30;10.90;;;;;;;17.69;55.24;100390.19;5047659;28;20025;-47
2021/10/18 11:11:19;;;;;;;17.00;12.90;;;;;;;17.71;56.54;100384.56;5049019;28;20032;-47
2021/10/18 11:13:50;;;;;;;15.13;10.27;;;;;;;17.74;56.19;100381.38;5048781;28;20057;-48
2021/10/18 11:16:19;;;;;;;13.68;10.38;;;;;;;18.06;55.07;100376.47;5048787;28;20081;-47
2021/10/18 11:18:49;;;;;;;14.45;10.20;;;;;;;17.81;55.41;100375.91;5048644;28;20036;-47
2021/10/18 11:21:20;;;;;;;15.80;10.25;;;;;;;17.44;56.67;100379.66;5048441;28;20044;-47
2021/10/18 11:23:59;;;;;;;17.20;12.75;;;;;;;17.51;56.66;100374.16;5047327;28;20025;-46
2021/10/18 11:26:26;;;;;;;15.70;12.20;;;;;;;17.56;56.33;100368.88;5048670;28;20068;-47
2021/10/18 11:28:56;;;;;;;15.77;11.10;;;;;;;17.84;55.71;100370.91;5048394;28;20077;-48
2021/10/18 11:31:32;;;;;;;14.98;10.35;;;;;;;18.00;53.87;100365.84;5048405;28;20120;-46
2021/10/18 11:34:01;;;;;;;14.00;10.27;;;;;;;17.71;55.31;100368.41;5048722;28;20117;-46
2021/10/18 11:36:27;;;;;;;16.75;11.27;;;;;;;17.85;55.79;100366.31;5048163;28;20040;-46
2021/10/18 11:39:16;;;;;;;17.92;11.45;;;;;;;17.95;55.66;100369.22;5048539;28;20052;-48
2021/10/18 11:42:00;;;;;;;17.00;11.10;;;;;;;17.61;55.83;100368.19;5048668;28;20032;-47
2021/10/18 11:44:49;;;;;;;17.10;11.55;;;;;;;17.91;56.30;100362.69;5051156;28;20116;-47
2021/10/18 11:47:34;;;;;;;17.98;11.82;;;;;;;17.77;57.20;100357.50;5052256;28;20134;-48
2021/10/18 11:50:03;;;;;;;16.58;11.98;;;;;;;17.70;56.23;100362.19;5051706;28;20052;-47
2021/10/18 11:52:29;;;;;;;17.13;11.60;;;;;;;17.77;56.77;100354.00;5052515;28;20103;-47
2021/10/18 11:54:54;;;;;;;20.65;11.13;;;;;;;17.61;57.48;100360.94;5051185;28;20393;-50
2021/10/18 11:57:20;;;;;;;17.67;12.05;;;;;;;17.72;58.08;100354.69;5052247;28;20032;-47
2021/10/18 11:59:47;;;;;;;19.58;12.15;;;;;;;17.71;59.22;100366.53;5052245;28;20025;-47
2021/10/18 12:02:25;;;;;;;16.10;11.85;;;;;;;17.31;60.28;100361.06;5052038;28;20033;-48
2021/10/18 12:04:57;;;;;;;20.77;12.82;;;;;;;17.42;59.86;100362.94;5051487;28;20258;-46
2021/10/18 12:07:49;;;;;;;17.58;12.15;;;;;;;17.59;59.93;100363.03;5051337;28;20025;-49
2021/10/18 12:10:19;;;;;;;16.55;12.38;;;;;;;17.27;60.58;100362.53;5046913;28;20120;-46
2021/10/18 12:13:20;;;;;;;20.05;12.40;;;;;;;17.09;60.17;100358.09;5052029;28;20024;-48
2021/10/18 12:15:46;;;;;;;20.83;11.70;;;;;;;17.14;60.92;100361.72;5052228;28;20135;-47
2021/10/18 12:18:12;;;;;;;17.63;11.95;;;;;;;17.53;59.59;100359.41;5051811;28;20484;-46
2021/10/18 12:20:45;;;;;;;16.77;12.50;;;;;;;17.32;60.81;100355.41;5051265;28;20041;-46